»·PEaware :: AAL2063 KPHX-KLAS

AAL2063 :: KPHX-KLAS

FLIGHT INFORMATION

Flight Status: Arrived
Operator:
American Airlines
More flights by this operator :: More flights under this callsign
Pilot: Henderson P. (1210)
Aircraft: AIRBUS A320
(A320)
More flights by this aircraft type
Origin: KPHX Phoenix Sky Harbor Intl
United States
Destination: KLAS McCarran Intl
United States
More flights between these airports :: More routes between these airports
Route: +ZEPER1 SISIE IGM TYSSN5
File this flight plan on PilotEdge
Remarks:
Altitude:
(Current/Filed)
28,000ft
Speed:
(Current/Filed)
423kts
Departed: 06-Nov-18 02:23 PM
Arrived: 06-Nov-18 03:09 PM
Distance/Time
Traveled:
221nm/0:46
Distance/Time
To Go:
Arrived

Flight Plot

Page will automatically refresh every two minutes.

Flight plan parsing failed; only flown route is shown


Map Options




Map Legend


Flown Route
Filed Route
Departure Airport
Arrival Airport
Navaid (VOR, NDB)
Fix

Horizontal Profiles

Position Reports

Time Latitude Longitude Heading Altitude Ground
Speed
06-Nov-18 13:51 33.437381 -111.999857 90 1149ft 0kts
06-Nov-18 13:52 33.437381 -111.999857 90 1149ft 0kts
06-Nov-18 13:53 33.437381 -111.999857 90 1149ft 0kts
06-Nov-18 13:54 33.437381 -111.999857 90 1149ft 0kts
06-Nov-18 13:55 33.437381 -111.999857 90 1149ft 0kts
06-Nov-18 13:56 33.437381 -111.999857 90 1149ft 0kts
06-Nov-18 13:57 33.437381 -111.999857 90 1149ft 0kts
06-Nov-18 13:58 33.437381 -111.999857 90 1149ft 0kts
06-Nov-18 13:59 33.437381 -111.999857 90 1149ft 0kts
06-Nov-18 14:00 33.437381 -111.999857 90 1149ft 0kts
06-Nov-18 14:01 33.437381 -111.999857 90 1149ft 0kts
06-Nov-18 14:02 33.437381 -111.999857 90 1149ft 0kts
06-Nov-18 14:03 33.437381 -111.999857 90 1149ft 0kts
06-Nov-18 14:04 33.437381 -111.999857 90 1149ft 0kts
06-Nov-18 14:05 33.437381 -111.999857 90 1149ft 0kts
06-Nov-18 14:06 33.437381 -111.999857 90 1149ft 0kts
06-Nov-18 14:07 33.437381 -111.999857 90 1149ft 0kts
06-Nov-18 14:08 33.437381 -111.999857 90 1149ft 0kts
06-Nov-18 14:09 33.437381 -111.999857 90 1149ft 0kts
06-Nov-18 14:10 33.437381 -111.999857 90 1149ft 0kts
06-Nov-18 14:11 33.437381 -111.999857 90 1149ft 0kts
06-Nov-18 14:12 33.437350 -112.000153 59 1149ft 2kts
06-Nov-18 14:13 33.436910 -112.000331 0 1149ft 0kts
06-Nov-18 14:14 33.436910 -112.000331 0 1149ft 0kts
06-Nov-18 14:15 33.436933 -112.000331 0 1149ft 1kts
06-Nov-18 14:16 33.438310 -112.000321 359 1149ft 5kts
06-Nov-18 14:17 33.438432 -112.000323 359 1149ft 0kts
06-Nov-18 14:18 33.438522 -112.000322 0 1149ft 3kts
06-Nov-18 14:19 33.438998 -112.002504 269 1149ft 13kts
06-Nov-18 14:20 33.438998 -112.007364 270 1149ft 15kts
06-Nov-18 14:21 33.439007 -112.012478 265 1149ft 15kts
06-Nov-18 14:22 33.439005 -112.017836 271 1149ft 16kts
06-Nov-18 14:23 33.438996 -112.023579 269 1149ft 18kts
06-Nov-18 14:24 33.439197 -112.029578 327 1149ft 10kts
06-Nov-18 14:25 33.440016 -112.029672 359 1149ft 0kts
06-Nov-18 14:26 33.440840 -112.025809 89 1149ft 69kts
06-Nov-18 14:27 33.441122 -111.975320 92 2373ft 170kts
06-Nov-18 14:28 33.437133 -111.911879 95 3740ft 221kts
06-Nov-18 14:29 33.457737 -111.837008 25 5701ft 281kts
06-Nov-18 14:30 33.536738 -111.834703 357 8575ft 294kts
06-Nov-18 14:31 33.619790 -111.835867 355 10772ft 309kts
06-Nov-18 14:32 33.713469 -111.849957 336 11588ft 367kts
06-Nov-18 14:33 33.787231 -111.938333 303 12676ft 392kts
06-Nov-18 14:34 33.852078 -112.045292 304 14578ft 399kts
06-Nov-18 14:35 33.918129 -112.153855 304 16226ft 408kts
06-Nov-18 14:36 33.985426 -112.264528 303 18056ft 411kts
06-Nov-18 14:37 34.061749 -112.369670 316 19478ft 426kts
06-Nov-18 14:38 34.154101 -112.460984 316 20878ft 434kts
06-Nov-18 14:39 34.247625 -112.555712 316 22093ft 442kts
06-Nov-18 14:40 34.342979 -112.652087 316 23262ft 449kts
06-Nov-18 14:41 34.439228 -112.749722 316 24288ft 455kts
06-Nov-18 14:42 34.536449 -112.848679 316 25444ft 454kts
06-Nov-18 14:43 34.630568 -112.949106 313 26746ft 448kts
06-Nov-18 14:44 34.722664 -113.049728 313 28023ft 444kts
06-Nov-18 14:45 34.814601 -113.150547 313 28097ft 444kts
06-Nov-18 14:46 34.906127 -113.251308 313 28087ft 444kts
06-Nov-18 14:47 34.993375 -113.356831 300 28114ft 438kts
06-Nov-18 14:48 35.053395 -113.485837 296 28106ft 437kts
06-Nov-18 14:49 35.113601 -113.614900 297 28037ft 438kts
06-Nov-18 14:50 35.173137 -113.743887 297 27704ft 435kts
06-Nov-18 14:51 35.232987 -113.873975 297 25698ft 438kts
06-Nov-18 14:52 35.315181 -113.985466 319 24058ft 455kts
06-Nov-18 14:53 35.416485 -114.078713 319 23845ft 450kts
06-Nov-18 14:54 35.513318 -114.169008 319 20728ft 415kts
06-Nov-18 14:55 35.595546 -114.245657 318 19688ft 332kts
06-Nov-18 14:56 35.664632 -114.310414 317 17836ft 305kts
06-Nov-18 14:57 35.731540 -114.373066 319 15495ft 299kts
06-Nov-18 14:58 35.807944 -114.414156 336 13445ft 298kts
06-Nov-18 14:59 35.884812 -114.449937 336 11994ft 288kts
06-Nov-18 15:00 35.960235 -114.485266 336 11995ft 289kts
06-Nov-18 15:01 36.029213 -114.520832 313 11980ft 241kts
06-Nov-18 15:02 36.047975 -114.595928 281 10870ft 236kts
06-Nov-18 15:03 36.060115 -114.676567 281 9536ft 240kts
06-Nov-18 15:04 36.072380 -114.757727 281 8305ft 237kts
06-Nov-18 15:05 36.073867 -114.834595 271 7510ft 219kts
06-Nov-18 15:06 36.073854 -114.893517 271 6995ft 168kts
06-Nov-18 15:07 36.073819 -114.947464 270 5557ft 155kts
06-Nov-18 15:08 36.073770 -114.999959 270 4177ft 150kts
06-Nov-18 15:09 36.073729 -115.051385 270 3391ft 148kts
06-Nov-18 15:10 36.073664 -115.102273 270 2603ft 147kts
06-Nov-18 15:11 36.073646 -115.148319 270 2195ft 73kts
06-Nov-18 15:12 36.076124 -115.157137 314 2195ft 21kts
06-Nov-18 15:13 36.078035 -115.154330 91 2195ft 21kts
06-Nov-18 15:14 36.078517 -115.147005 96 2195ft 19kts
06-Nov-18 15:15 36.078273 -115.139120 90 2195ft 22kts
06-Nov-18 15:16 36.079539 -115.136277 30 2195ft 9kts
06-Nov-18 15:17 36.079944 -115.135801 45 2195ft 0kts
06-Nov-18 15:18 36.079944 -115.135801 45 2195ft 0kts
06-Nov-18 15:19 36.079944 -115.135801 45 2195ft 0kts
06-Nov-18 15:20 36.079944 -115.135801 45 2195ft 0kts
06-Nov-18 15:21 36.079944 -115.135801 45 2195ft 0kts
06-Nov-18 15:22 36.079944 -115.135801 45 2195ft 0kts
06-Nov-18 15:23 36.079944 -115.135801 45 2195ft 0kts
06-Nov-18 15:24 36.079944 -115.135801 45 2195ft 0kts
06-Nov-18 15:25 36.079944 -115.135801 45 2195ft 0kts
06-Nov-18 15:26 36.079944 -115.135801 45 2195ft 0kts

Navigation Log

Ident Type
Flight plan parsing failed, navigation log unavailable